Dalhart, TX

11:00 AM CDT en Octubre 25, 2014 (GMT -0500)
Dalhart Municipal | Change Station
CLOSE
Current Station
Aeropuerto
Location: Dalhart,
Altura: 3990 ft
Estaciones meteorológicas cercanas

Alt 3990 ft 36.03 °N, 102.55 °W | Updated 7 minutes ago

Despejado
Despejado
69 ° F
Sensación térmica 69 ° F
N
7
Viento Variable Viento desde SSO

Hoy
Alta -- | Baja -- ° F
--% Posibilidad de precipitaciones
Ayer
Alta -- | Baja -- ° F
Precip. -- pul
8:06 AM 7:01 PM
Creciente, 3% visible
Presión 30.08 pul
Visibilidad 10.0 Millas
Nubes Despejado
Punto de rocío 42 ° F
Humedad 38%
Precipitaciones 0.00 pul
Espesor de la nieve No disponible.
UV 3 de una escala de 12
Polen 6.50 de una escala de 12
Calidad del aire No disponible.
Flu Activity Local Activity
METAR KDHT 251553Z AUTO 21006KT 10SM CLR 21/06 A3020 RMK AO2 SLP186 T02060056

More Conditions Fewer Conditions

Presión 30.08 pul
Visibilidad 10.0 Millas
Nubes Despejado
Punto de rocío 42 ° F
Humedad 38%
Precipitaciones 0.00 pul
Espesor de la nieve No disponible.
UV 3 de una escala de 12
Polen 6.50 de una escala de 12
Calidad del aire No disponible.
Flu Activity Local Activity
METAR KDHT 251553Z AUTO 21006KT 10SM CLR 21/06 A3020 RMK AO2 SLP186 T02060056

More Conditions Fewer Conditions

10-Day Weather Forecast

Almanac

Astronomía

Oct. 25, 2014 Salida Puesta
Hora real 8:06 AM CDT 7:01 PM CDT
Crepúsculo civil 7:39 AM CDT 7:27 PM CDT
Crepúsculo náutico 7:09 AM CDT 7:57 PM CDT
Crepúsculo astronómico 6:39 AM CDT 8:27 PM CDT
Luna 9:44 AM CDT 8:29 PM CDT
Horas de luz 11h 48m
Horas de luz
10h 55m
Tomorrow will be 2m 6s shorter.
Creciente, 3% of the Moon is Illuminated
Hoy
Creciente
Oct 30
Cuarto creciente
Nov 6
Luna llena
Nov 14
Cuarto menguante
Nov 22
Nueva

Extremos de hoy

Máximos del estado Bajos del estado

Community

WunderPhotos

Upload Photos

1,764,884 ¡fotos cargadas!

Nearby

Grosos de nieve

Estación Profundido Altura
No tenemos constancia de nieve nueva.

Actividad de terremotos

Ciudad Distance Mag. Tiempo y dato
No hay informes recientes de la actividad sísmica.
Magnitud mínima muestra es 2,5.

Temperaturas de aguas costeras

Lugar Temperatura
Sin partes meteorológicos de las estaciones

Estaciones meteorológicas cercanas